Time;durP1;ratioP1;P1;durP2;ratioP2;P2;SDS_P1;SDS_P2;PMS_P1;PMS_P2;Temp;Humidity;BMP_temperature;BMP_pressure;BME280_temperature;BME280_humidity;BME280_pressure;Samples;Min_cycle;Max_cycle;Signal;HPM_P1;HPM_P2
2020/12/12 00:01:38;;;;;;;10.35;7.72;;;4.50;99.90;;;;;;5014015;28;20204;-85
2020/12/12 00:04:04;;;;;;;13.50;9.15;;;4.60;99.90;;;;;;5012817;28;20297;-85
2020/12/12 00:06:31;;;;;;;15.90;8.40;;;4.60;99.90;;;;;;5008356;28;20218;-86
2020/12/12 00:08:57;;;;;;;11.80;8.23;;;4.60;99.90;;;;;;5014464;28;20326;-85
2020/12/12 00:11:24;;;;;;;13.73;8.50;;;4.60;99.90;;;;;;5018971;28;20669;-85
2020/12/12 00:13:51;;;;;;;13.98;8.85;;;4.60;99.90;;;;;;5014047;28;20294;-86
2020/12/12 00:16:17;;;;;;;13.02;8.55;;;4.60;99.90;;;;;;5013800;28;20294;-85
2020/12/12 00:18:44;;;;;;;12.23;8.55;;;4.70;99.90;;;;;;5012515;28;20200;-86
2020/12/12 00:21:12;;;;;;;11.65;8.20;;;4.70;99.90;;;;;;5013832;28;20217;-84
2020/12/12 00:23:38;;;;;;;12.50;8.20;;;4.70;99.90;;;;;;5013883;28;20207;-86
2020/12/12 00:26:04;;;;;;;10.55;7.85;;;4.70;99.90;;;;;;5013383;28;20210;-87
2020/12/12 00:28:33;;;;;;;8.82;6.15;;;4.70;99.90;;;;;;5013673;28;20214;-86
2020/12/12 00:31:00;;;;;;;14.57;9.13;;;4.70;99.90;;;;;;5013508;28;20231;-86
2020/12/12 00:33:26;;;;;;;10.80;8.30;;;4.70;99.90;;;;;;5012342;28;20214;-87
2020/12/12 00:35:53;;;;;;;14.85;8.40;;;4.80;99.90;;;;;;5013437;28;20673;-85
2020/12/12 00:38:19;;;;;;;14.07;9.00;;;4.80;99.90;;;;;;5013578;28;20257;-87
2020/12/12 00:40:45;;;;;;;13.02;7.25;;;4.70;99.90;;;;;;5012942;28;20573;-88
2020/12/12 00:43:12;;;;;;;12.57;7.45;;;4.70;99.90;;;;;;5013704;28;20203;-91
2020/12/12 00:45:39;;;;;;;14.32;8.82;;;4.60;99.90;;;;;;5013350;28;20298;-84
2020/12/12 00:48:05;;;;;;;15.38;8.00;;;4.60;99.90;;;;;;5012003;28;20209;-83
2020/12/12 00:50:32;;;;;;;12.00;7.60;;;4.70;99.90;;;;;;5013115;28;20575;-82
2020/12/12 00:52:58;;;;;;;10.23;7.10;;;4.70;99.90;;;;;;5013296;28;20679;-84
2020/12/12 00:55:24;;;;;;;13.32;8.05;;;4.70;99.90;;;;;;5012841;28;20203;-83
2020/12/12 00:57:51;;;;;;;14.25;8.80;;;4.70;99.90;;;;;;5012432;28;20326;-83
2020/12/12 01:00:17;;;;;;;17.38;8.68;;;4.70;99.90;;;;;;5012974;28;20215;-83
2020/12/12 01:02:44;;;;;;;10.65;7.03;;;4.70;99.90;;;;;;5011894;28;20249;-83
2020/12/12 01:05:11;;;;;;;13.70;8.90;;;4.70;99.90;;;;;;5012996;28;20294;-84
2020/12/12 01:07:37;;;;;;;11.40;7.55;;;4.60;99.90;;;;;;5013038;28;20297;-84
2020/12/12 01:10:03;;;;;;;11.57;7.85;;;4.70;99.90;;;;;;5012707;28;20242;-84
2020/12/12 01:12:30;;;;;;;14.50;8.60;;;4.70;99.90;;;;;;5012829;28;20233;-84
2020/12/12 01:14:56;;;;;;;12.55;7.38;;;4.70;99.90;;;;;;5013117;28;20210;-83
2020/12/12 01:17:22;;;;;;;12.45;7.82;;;4.70;99.90;;;;;;5011700;28;20203;-82
2020/12/12 01:19:50;;;;;;;9.18;7.22;;;4.80;99.90;;;;;;5013043;28;20206;-84
2020/12/12 01:22:16;;;;;;;15.93;8.82;;;4.80;99.90;;;;;;5013038;28;20231;-83
2020/12/12 01:24:42;;;;;;;15.07;8.27;;;4.80;99.90;;;;;;5012684;28;20282;-83
2020/12/12 01:27:09;;;;;;;12.60;7.63;;;4.70;99.90;;;;;;5012671;28;20208;-83
2020/12/12 01:29:35;;;;;;;16.42;10.07;;;4.70;99.90;;;;;;5012864;28;20234;-82
2020/12/12 01:32:01;;;;;;;17.58;9.93;;;4.70;99.90;;;;;;5011419;28;20318;-83
2020/12/12 01:34:28;;;;;;;13.70;9.98;;;4.70;99.90;;;;;;5012974;28;20246;-82
2020/12/12 01:36:55;;;;;;;15.75;8.68;;;4.60;99.90;;;;;;5012710;28;20230;-82
2020/12/12 01:39:21;;;;;;;17.98;8.43;;;4.60;99.90;;;;;;5011578;28;20211;-83
2020/12/12 01:41:47;;;;;;;14.93;8.95;;;4.60;99.90;;;;;;4973156;28;20612;-83
2020/12/12 01:44:16;;;;;;;13.30;8.00;;;4.60;99.90;;;;;;4973618;28;20212;-83
2020/12/12 01:46:43;;;;;;;11.50;7.97;;;4.60;99.90;;;;;;4973843;28;20213;-83
2020/12/12 01:49:09;;;;;;;15.73;10.23;;;4.50;99.90;;;;;;4973149;28;20216;-84
2020/12/12 01:51:36;;;;;;;16.52;8.38;;;4.50;99.90;;;;;;4978084;28;20232;-83
2020/12/12 01:54:03;;;;;;;14.60;8.57;;;4.50;99.90;;;;;;4978025;28;20208;-83
2020/12/12 01:56:30;;;;;;;12.35;8.27;;;4.50;99.90;;;;;;4974630;28;20223;-82
2020/12/12 01:58:56;;;;;;;12.52;7.43;;;4.60;99.90;;;;;;4973524;28;20328;-83
2020/12/12 02:01:23;;;;;;;15.30;8.43;;;4.60;99.90;;;;;;4973767;28;20295;-83
2020/12/12 02:03:51;;;;;;;13.75;7.70;;;4.60;99.90;;;;;;4972410;28;20207;-83
2020/12/12 02:06:19;;;;;;;15.90;8.35;;;4.60;99.90;;;;;;4973622;28;20205;-83
2020/12/12 02:08:45;;;;;;;14.85;8.70;;;4.60;99.90;;;;;;5005089;28;20214;-82
2020/12/12 02:11:14;;;;;;;12.23;8.38;;;4.70;99.90;;;;;;5016081;28;20231;-83
2020/12/12 02:13:50;;;;;;;16.85;8.52;;;4.80;99.90;;;;;;5016071;28;20294;-84
2020/12/12 02:16:17;;;;;;;12.63;8.32;;;4.70;99.90;;;;;;5016021;28;20655;-83
2020/12/12 02:18:44;;;;;;;17.77;8.93;;;4.70;99.90;;;;;;5011794;28;20217;-84
2020/12/12 02:21:11;;;;;;;13.93;8.20;;;4.70;99.90;;;;;;5015779;28;20238;-84
2020/12/12 02:23:38;;;;;;;16.77;9.18;;;4.70;99.90;;;;;;5015460;28;20217;-82
2020/12/12 02:26:05;;;;;;;10.35;7.43;;;4.70;99.90;;;;;;5016050;28;20203;-83
2020/12/12 02:28:36;;;;;;;14.65;8.57;;;4.70;99.90;;;;;;5015874;28;20286;-83
2020/12/12 02:31:02;;;;;;;21.23;9.77;;;4.60;99.90;;;;;;5015773;28;20239;-83
2020/12/12 02:33:29;;;;;;;18.50;11.10;;;4.60;99.90;;;;;;5014533;28;20218;-82
2020/12/12 02:35:56;;;;;;;17.65;9.48;;;4.60;99.90;;;;;;5015684;28;20258;-83
2020/12/12 02:38:23;;;;;;;21.50;11.30;;;4.50;99.90;;;;;;5015153;28;20242;-83
2020/12/12 02:40:50;;;;;;;14.07;8.30;;;4.40;99.90;;;;;;5015619;28;20214;-82
2020/12/12 02:43:18;;;;;;;18.90;9.50;;;4.40;99.90;;;;;;5015349;28;20294;-83
2020/12/12 02:45:45;;;;;;;15.40;9.18;;;4.40;99.90;;;;;;5015489;28;20207;-82
2020/12/12 02:48:12;;;;;;;14.85;9.40;;;4.40;99.90;;;;;;5014286;28;20341;-82
2020/12/12 02:50:39;;;;;;;15.95;10.25;;;4.40;99.90;;;;;;5015288;28;20214;-82
2020/12/12 02:53:05;;;;;;;19.65;10.10;;;4.40;99.90;;;;;;5014957;28;20204;-82
2020/12/12 02:55:32;;;;;;;15.63;9.60;;;4.40;99.90;;;;;;5015383;28;20211;-82
2020/12/12 02:57:59;;;;;;;17.30;10.23;;;4.30;99.90;;;;;;5015161;28;20237;-82
2020/12/12 03:00:26;;;;;;;14.15;9.65;;;4.30;99.90;;;;;;5015285;28;20234;-83
2020/12/12 03:02:53;;;;;;;16.67;9.27;;;4.20;99.90;;;;;;5010962;28;20218;-83
2020/12/12 03:05:19;;;;;;;15.55;9.20;;;4.30;99.90;;;;;;5015086;28;20634;-82
2020/12/12 03:07:46;;;;;;;15.32;10.77;;;4.20;99.90;;;;;;5014421;28;20211;-83
2020/12/12 03:10:12;;;;;;;14.75;9.80;;;4.20;99.90;;;;;;5015129;28;20291;-82
2020/12/12 03:12:39;;;;;;;15.52;10.05;;;4.20;99.90;;;;;;5014866;28;20235;-83
2020/12/12 03:15:08;;;;;;;17.58;10.10;;;4.20;99.90;;;;;;5014918;28;20208;-83
2020/12/12 03:17:35;;;;;;;16.35;9.95;;;4.20;99.90;;;;;;5013647;28;20267;-82
2020/12/12 03:20:02;;;;;;;13.98;9.82;;;4.30;99.90;;;;;;5013965;28;20265;-83
2020/12/12 03:22:28;;;;;;;18.35;10.30;;;4.30;99.90;;;;;;5014600;28;20728;-82
2020/12/12 03:24:54;;;;;;;15.30;9.15;;;4.30;99.90;;;;;;5014477;28;20713;-83
2020/12/12 03:27:21;;;;;;;16.05;8.77;;;4.30;99.90;;;;;;5014794;28;20204;-83
2020/12/12 03:29:47;;;;;;;21.67;10.95;;;4.30;99.90;;;;;;5014723;28;20298;-88
2020/12/12 03:32:14;;;;;;;15.20;9.45;;;4.30;99.90;;;;;;5013430;28;20235;-89
2020/12/12 03:34:44;;;;;;;18.73;10.63;;;4.30;99.90;;;;;;5014513;28;20585;-90
2020/12/12 03:37:11;;;;;;;18.65;10.38;;;4.30;99.90;;;;;;5014503;28;20630;-89
2020/12/12 03:39:38;;;;;;;15.82;10.10;;;4.30;99.90;;;;;;5014762;28;20199;-89
2020/12/12 03:42:04;;;;;;;17.85;9.70;;;4.20;99.90;;;;;;5015044;28;20204;-89
2020/12/12 03:44:31;;;;;;;15.75;9.63;;;4.20;99.90;;;;;;5022720;28;20318;-89
2020/12/12 03:46:57;;;;;;;18.05;10.48;;;4.20;99.90;;;;;;5013444;28;20203;-86
2020/12/12 03:49:24;;;;;;;15.73;10.00;;;4.20;99.90;;;;;;5014413;28;20204;-88
2020/12/12 03:51:51;;;;;;;17.25;10.18;;;4.20;99.90;;;;;;5014321;28;20326;-89
2020/12/12 03:54:17;;;;;;;16.40;9.77;;;4.20;99.90;;;;;;5014116;28;20208;-88
2020/12/12 03:56:43;;;;;;;15.15;10.32;;;4.20;99.90;;;;;;5014225;28;20214;-87
2020/12/12 03:59:09;;;;;;;13.90;9.30;;;4.20;99.90;;;;;;5013759;28;20237;-87
2020/12/12 04:01:36;;;;;;;16.17;11.32;;;4.30;99.90;;;;;;5014116;28;20204;-88
2020/12/12 04:04:02;;;;;;;20.60;9.95;;;4.30;99.90;;;;;;5012923;28;20621;-89
2020/12/12 04:06:29;;;;;;;15.38;10.40;;;4.40;99.90;;;;;;5014303;28;20226;-88
2020/12/12 04:08:56;;;;;;;15.05;9.00;;;4.40;99.90;;;;;;5014036;28;20203;-89
2020/12/12 04:11:22;;;;;;;16.65;9.30;;;4.40;99.90;;;;;;5014108;28;20687;-87
2020/12/12 04:13:48;;;;;;;14.93;9.98;;;4.40;99.90;;;;;;5014070;28;20208;-87
2020/12/12 04:16:15;;;;;;;15.23;10.73;;;4.40;99.90;;;;;;5013637;28;20849;-88
2020/12/12 04:18:41;;;;;;;10.55;8.70;;;4.40;99.90;;;;;;5012646;28;20210;-87
2020/12/12 04:21:08;;;;;;;18.95;9.60;;;4.40;99.90;;;;;;5013554;28;20218;-87
2020/12/12 04:23:35;;;;;;;20.23;9.32;;;4.50;99.90;;;;;;5013493;28;20213;-87
2020/12/12 04:26:02;;;;;;;15.07;8.95;;;4.60;99.90;;;;;;5013857;28;20211;-88
2020/12/12 04:28:28;;;;;;;13.82;8.75;;;4.60;99.90;;;;;;5014142;28;20294;-86
2020/12/12 04:30:55;;;;;;;12.20;8.77;;;4.60;99.90;;;;;;5013815;28;20219;-88
2020/12/12 04:33:21;;;;;;;15.25;9.10;;;4.60;99.90;;;;;;5027700;28;20191;-87
2020/12/12 04:35:48;;;;;;;13.98;9.20;;;4.60;99.90;;;;;;5037696;28;20223;-86
2020/12/12 04:38:14;;;;;;;16.38;9.48;;;4.60;99.90;;;;;;5037669;28;20210;-86
2020/12/12 04:40:41;;;;;;;11.57;8.90;;;4.70;99.90;;;;;;5033354;28;20211;-88
2020/12/12 04:43:09;;;;;;;14.88;9.20;;;4.70;99.90;;;;;;5018240;28;20271;-89
2020/12/12 04:45:37;;;;;;;17.23;9.40;;;4.70;99.90;;;;;;5017114;28;20278;-88
2020/12/12 04:48:04;;;;;;;10.75;7.78;;;4.80;99.90;;;;;;5013317;28;20298;-88
2020/12/12 04:50:30;;;;;;;12.55;8.45;;;4.80;99.90;;;;;;5013650;28;20294;-88
2020/12/12 04:53:10;;;;;;;10.07;7.53;;;4.80;99.90;;;;;;5013062;28;20235;-90
2020/12/12 04:55:44;;;;;;;12.13;7.93;;;4.80;99.90;;;;;;5013415;28;20207;-89
2020/12/12 04:58:14;;;;;;;11.82;8.38;;;4.80;99.90;;;;;;5013021;28;20231;-90
2020/12/12 05:00:45;;;;;;;12.02;7.63;;;4.80;99.90;;;;;;5013311;28;20607;-88
2020/12/12 05:03:13;;;;;;;12.98;8.15;;;4.80;99.90;;;;;;5012037;28;20215;-89
2020/12/12 05:05:39;;;;;;;13.13;8.27;;;4.90;99.90;;;;;;5013253;28;20199;-90
2020/12/12 05:08:06;;;;;;;13.85;8.50;;;4.80;99.90;;;;;;5012960;28;20204;-88
2020/12/12 05:10:37;;;;;;;11.10;7.32;;;4.90;99.90;;;;;;5013196;28;20575;-89
2020/12/12 05:13:13;;;;;;;11.63;8.20;;;4.90;99.90;;;;;;5013275;28;20231;-88
2020/12/12 05:15:41;;;;;;;10.68;7.05;;;4.90;99.90;;;;;;5013291;28;20211;-90
2020/12/12 05:18:08;;;;;;;11.13;8.20;;;4.90;99.90;;;;;;5011512;28;20218;-89
2020/12/12 05:20:35;;;;;;;11.43;7.47;;;4.90;99.90;;;;;;5013264;28;20302;-90
2020/12/12 05:23:01;;;;;;;11.95;9.13;;;5.00;99.90;;;;;;5012689;28;20199;-89
2020/12/12 05:25:28;;;;;;;15.70;8.90;;;4.90;99.90;;;;;;5013018;28;20683;-88
2020/12/12 05:27:55;;;;;;;11.88;7.88;;;4.80;99.90;;;;;;5012916;28;20718;-88
2020/12/12 05:30:24;;;;;;;13.88;7.97;;;4.90;99.90;;;;;;5013120;28;20286;-90
2020/12/12 05:32:50;;;;;;;13.23;8.65;;;4.80;99.90;;;;;;5011618;28;20718;-88
2020/12/12 05:35:17;;;;;;;10.13;7.05;;;4.90;99.90;;;;;;5012910;28;20295;-89
2020/12/12 05:37:43;;;;;;;11.55;7.88;;;4.90;99.90;;;;;;5012902;28;20211;-89
2020/12/12 05:40:09;;;;;;;12.68;7.28;;;4.90;99.90;;;;;;5012609;28;20594;-89
2020/12/12 05:42:36;;;;;;;12.75;10.15;;;4.90;99.90;;;;;;5013099;28;20575;-87
2020/12/12 05:45:05;;;;;;;12.73;7.63;;;4.90;99.90;;;;;;5016907;28;20218;-88
2020/12/12 05:47:34;;;;;;;11.25;8.23;;;5.00;99.90;;;;;;5015449;28;20555;-90
2020/12/12 05:50:00;;;;;;;11.52;7.53;;;5.00;99.90;;;;;;5016477;28;20758;-88
2020/12/12 05:52:28;;;;;;;10.50;6.18;;;5.00;99.90;;;;;;5016377;28;20598;-88
2020/12/12 05:54:55;;;;;;;11.77;7.55;;;5.00;99.90;;;;;;5016403;28;20199;-88
2020/12/12 05:57:22;;;;;;;12.50;8.23;;;5.00;99.90;;;;;;5016545;28;20572;-87
2020/12/12 05:59:49;;;;;;;11.70;7.40;;;5.00;99.90;;;;;;5015983;28;20238;-87
2020/12/12 06:02:16;;;;;;;13.40;8.65;;;5.00;99.90;;;;;;5015204;28;20204;-87
2020/12/12 06:04:50;;;;;;;9.35;7.25;;;5.00;99.90;;;;;;5015969;28;20671;-87
2020/12/12 06:07:28;;;;;;;10.93;7.95;;;5.00;99.90;;;;;;5016230;28;20585;-87
2020/12/12 06:09:59;;;;;;;7.57;6.03;;;5.00;99.90;;;;;;5016098;28;20215;-88
2020/12/12 06:12:27;;;;;;;11.48;7.80;;;5.00;99.90;;;;;;5016628;28;20243;-88
2020/12/12 06:14:55;;;;;;;10.27;7.50;;;5.00;99.90;;;;;;5020130;28;20295;-88
2020/12/12 06:17:36;;;;;;;11.32;6.70;;;5.00;99.90;;;;;;5015141;28;20294;-87
2020/12/12 06:20:05;;;;;;;10.73;7.80;;;5.10;99.90;;;;;;5016415;28;20237;-87
2020/12/12 06:22:32;;;;;;;11.90;7.63;;;5.10;99.90;;;;;;5023664;28;20211;-87
2020/12/12 06:25:01;;;;;;;12.07;8.13;;;5.10;99.90;;;;;;5035400;28;20208;-87
2020/12/12 06:27:37;;;;;;;9.70;7.05;;;5.10;99.90;;;;;;5019820;28;20210;-87
2020/12/12 06:30:05;;;;;;;10.90;6.75;;;5.10;99.90;;;;;;5012931;28;20203;-87
2020/12/12 06:32:31;;;;;;;8.20;6.55;;;5.10;99.90;;;;;;5014549;28;20227;-88
2020/12/12 06:34:58;;;;;;;10.32;7.05;;;5.10;99.90;;;;;;5012792;28;20204;-87
2020/12/12 06:37:30;;;;;;;10.27;6.55;;;5.10;99.90;;;;;;5015815;28;20208;-87
2020/12/12 06:39:57;;;;;;;8.98;6.07;;;5.20;99.90;;;;;;5015674;28;20225;-88
2020/12/12 06:42:38;;;;;;;9.00;6.47;;;5.20;99.90;;;;;;5028992;28;20211;-86
2020/12/12 06:45:31;;;;;;;9.10;6.80;;;5.20;99.90;;;;;;5037162;28;20246;-86
2020/12/12 06:47:57;;;;;;;8.55;5.00;;;5.30;99.90;;;;;;5019702;28;20207;-87
2020/12/12 06:50:26;;;;;;;7.00;5.75;;;5.30;99.90;;;;;;5016404;28;20306;-86
2020/12/12 06:52:54;;;;;;;9.57;5.40;;;5.30;99.90;;;;;;5017335;28;20326;-86
2020/12/12 06:55:22;;;;;;;5.80;5.18;;;5.30;99.90;;;;;;5014446;28;20298;-85
2020/12/12 06:57:55;;;;;;;6.75;6.05;;;5.40;99.90;;;;;;5015136;28;20235;-88
2020/12/12 07:00:28;;;;;;;8.10;5.20;;;5.40;99.90;;;;;;5015533;28;20269;-88
2020/12/12 07:02:56;;;;;;;6.75;5.68;;;5.40;99.90;;;;;;5014457;28;20715;-87
2020/12/12 07:05:24;;;;;;;10.20;5.95;;;5.40;99.90;;;;;;5015310;28;20296;-88
2020/12/12 07:07:50;;;;;;;6.45;4.70;;;5.40;99.90;;;;;;5015101;28;20207;-89
2020/12/12 07:10:18;;;;;;;6.47;5.43;;;5.40;99.90;;;;;;5013873;28;20214;-88
2020/12/12 07:12:45;;;;;;;7.55;5.10;;;5.40;99.90;;;;;;5015320;28;20235;-89
2020/12/12 07:15:13;;;;;;;6.97;4.97;;;5.40;99.90;;;;;;5015451;28;20255;-88
2020/12/12 07:17:40;;;;;;;5.38;4.43;;;5.40;99.90;;;;;;5013674;28;20282;-88
2020/12/12 07:20:07;;;;;;;7.75;5.47;;;5.40;99.90;;;;;;5015109;28;20210;-86
2020/12/12 07:22:34;;;;;;;9.60;5.80;;;5.40;99.90;;;;;;5015066;28;20689;-89
2020/12/12 07:25:03;;;;;;;7.40;5.50;;;5.30;99.90;;;;;;5014726;28;20207;-88
2020/12/12 07:27:31;;;;;;;11.25;6.63;;;5.30;99.90;;;;;;5014967;28;20294;-87
2020/12/12 07:29:57;;;;;;;6.40;5.40;;;5.40;99.90;;;;;;5015020;28;20234;-88
2020/12/12 07:32:25;;;;;;;6.97;4.72;;;5.40;99.90;;;;;;5013457;28;20249;-88
2020/12/12 07:34:57;;;;;;;4.70;4.20;;;5.40;99.90;;;;;;5014829;28;20314;-88
2020/12/12 07:37:24;;;;;;;7.85;4.35;;;5.40;99.90;;;;;;5015331;28;20290;-88
2020/12/12 07:39:51;;;;;;;4.68;3.80;;;5.40;99.90;;;;;;5014286;28;20656;-90
2020/12/12 07:42:17;;;;;;;5.47;4.28;;;5.40;99.90;;;;;;5014766;28;20238;-91
2020/12/12 07:44:54;;;;;;;4.75;3.67;;;5.50;99.90;;;;;;5014376;28;20208;-91
2020/12/12 07:47:21;;;;;;;4.82;4.00;;;5.50;99.90;;;;;;5013055;28;20203;-86
2020/12/12 07:49:47;;;;;;;4.32;3.90;;;5.60;99.90;;;;;;5014452;28;20210;-90
2020/12/12 07:52:14;;;;;;;5.50;3.90;;;5.60;99.90;;;;;;5014218;28;20235;-90
2020/12/12 07:54:46;;;;;;;5.78;3.72;;;5.60;99.90;;;;;;5010998;28;20651;-87
2020/12/12 07:57:14;;;;;;;4.07;3.60;;;5.70;99.90;;;;;;5014112;28;20257;-89
2020/12/12 07:59:41;;;;;;;5.72;3.17;;;5.70;99.90;;;;;;5010963;28;20255;-89
2020/12/12 08:02:10;;;;;;;5.10;4.05;;;5.70;99.90;;;;;;5012825;28;20641;-86
2020/12/12 08:04:37;;;;;;;8.05;4.43;;;5.80;99.90;;;;;;5013997;28;20570;-88
2020/12/12 08:07:11;;;;;;;6.20;4.65;;;5.80;99.90;;;;;;5013834;28;20199;-88
2020/12/12 08:09:38;;;;;;;4.68;3.28;;;5.80;99.90;;;;;;5012556;28;20655;-87
2020/12/12 08:12:04;;;;;;;3.85;3.38;;;5.90;99.90;;;;;;5013873;28;20646;-89
2020/12/12 08:14:42;;;;;;;3.60;3.30;;;6.00;99.90;;;;;;5014021;28;20213;-87
2020/12/12 08:17:11;;;;;;;4.50;4.10;;;6.00;99.90;;;;;;5012463;28;20723;-88
2020/12/12 08:19:46;;;;;;;3.95;2.97;;;6.00;99.90;;;;;;5013839;28;20199;-86
2020/12/12 08:22:20;;;;;;;3.45;2.80;;;6.00;99.90;;;;;;5013637;28;20547;-85
2020/12/12 08:24:48;;;;;;;5.45;3.97;;;6.10;99.90;;;;;;5013233;28;20246;-86
2020/12/12 08:27:16;;;;;;;4.65;3.08;;;6.20;99.90;;;;;;5013667;28;20291;-82
2020/12/12 08:29:45;;;;;;;2.78;2.47;;;6.20;99.90;;;;;;5013230;28;20671;-85
2020/12/12 08:32:31;;;;;;;3.95;3.10;;;6.20;99.90;;;;;;5012140;28;20322;-85
2020/12/12 08:35:11;;;;;;;4.10;3.10;;;6.20;99.90;;;;;;5012848;28;20245;-86
2020/12/12 08:37:38;;;;;;;3.63;3.22;;;6.20;99.90;;;;;;5013938;28;20207;-84
2020/12/12 08:40:07;;;;;;;5.65;3.22;;;6.30;99.90;;;;;;5009806;28;20204;-83
2020/12/12 08:42:33;;;;;;;3.85;2.90;;;6.40;99.90;;;;;;5014381;28;20207;-86
2020/12/12 08:45:13;;;;;;;6.13;4.22;;;6.40;99.90;;;;;;5013318;28;20671;-88
2020/12/12 08:47:40;;;;;;;4.35;3.90;;;6.40;99.90;;;;;;5012298;28;20258;-88
2020/12/12 08:50:06;;;;;;;3.08;2.78;;;6.40;99.90;;;;;;5013317;28;20210;-91
2020/12/12 08:52:33;;;;;;;3.07;2.80;;;6.40;99.90;;;;;;5013152;28;20651;-86
2020/12/12 08:55:00;;;;;;;3.95;2.30;;;6.50;99.90;;;;;;5012905;28;20446;-86
2020/12/12 08:57:26;;;;;;;3.20;2.83;;;6.60;99.90;;;;;;5013860;28;20295;-85
2020/12/12 08:59:58;;;;;;;3.15;2.85;;;6.60;99.90;;;;;;5013032;28;20338;-85
2020/12/12 09:02:25;;;;;;;3.35;2.78;;;6.70;99.90;;;;;;5011932;28;20214;-86
2020/12/12 09:05:07;;;;;;;3.25;2.92;;;6.70;99.90;;;;;;5013259;28;20238;-85
2020/12/12 09:07:33;;;;;;;4.45;2.95;;;6.70;99.90;;;;;;5013131;28;20213;-86
2020/12/12 09:10:08;;;;;;;5.93;4.00;;;6.80;99.90;;;;;;5012630;28;20211;-87
2020/12/12 09:12:43;;;;;;;3.80;3.37;;;6.70;99.90;;;;;;5012905;28;20230;-86
2020/12/12 09:15:10;;;;;;;4.38;2.92;;;6.80;99.90;;;;;;5013493;28;20457;-87
2020/12/12 09:17:36;;;;;;;6.40;4.03;;;6.70;99.90;;;;;;5011075;28;20215;-86
2020/12/12 09:20:03;;;;;;;3.03;2.70;;;6.70;99.90;;;;;;5013256;28;20461;-86
2020/12/12 09:22:30;;;;;;;3.30;2.93;;;6.70;99.90;;;;;;5013063;28;20207;-85
2020/12/12 09:24:56;;;;;;;4.90;4.50;;;6.70;99.90;;;;;;5012468;28;20819;-85
2020/12/12 09:27:24;;;;;;;4.33;3.67;;;6.80;99.90;;;;;;5012950;28;20450;-86
2020/12/12 09:29:50;;;;;;;5.70;4.10;;;6.90;99.90;;;;;;5012769;28;20534;-87
2020/12/12 09:32:16;;;;;;;5.30;3.70;;;6.90;99.90;;;;;;5011381;28;20486;-85
2020/12/12 09:34:43;;;;;;;3.37;3.07;;;6.80;99.90;;;;;;5010716;28;20477;-85
2020/12/12 09:37:09;;;;;;;3.87;3.40;;;6.80;99.90;;;;;;4992870;28;20456;-84
2020/12/12 09:39:36;;;;;;;3.80;3.40;;;6.80;99.90;;;;;;5006987;28;20472;-84
2020/12/12 09:42:02;;;;;;;5.57;2.80;;;6.80;99.90;;;;;;5013129;28;20884;-83
2020/12/12 09:44:29;;;;;;;3.03;2.73;;;6.70;99.90;;;;;;5013017;28;20465;-84
2020/12/12 09:46:56;;;;;;;3.03;2.70;;;6.70;99.90;;;;;;5016993;28;20533;-83
2020/12/12 09:49:22;;;;;;;3.50;3.05;;;6.70;99.90;;;;;;5027700;28;20514;-83
2020/12/12 09:51:49;;;;;;;3.80;2.37;;;6.70;99.90;;;;;;5029652;28;20187;-84
2020/12/12 09:54:16;;;;;;;3.53;2.88;;;6.80;99.90;;;;;;5017733;28;20541;-84
2020/12/12 09:56:43;;;;;;;3.40;2.63;;;6.80;99.90;;;;;;5012948;28;20200;-84
2020/12/12 09:59:09;;;;;;;3.72;3.30;;;6.90;99.90;;;;;;5012754;28;20482;-83
2020/12/12 10:01:36;;;;;;;3.80;2.93;;;6.90;99.90;;;;;;5012619;28;20290;-83
2020/12/12 10:04:02;;;;;;;4.53;3.63;;;7.00;99.90;;;;;;5011389;28;20446;-84
2020/12/12 10:06:28;;;;;;;3.20;2.87;;;7.00;99.90;;;;;;5012487;28;20934;-84
2020/12/12 10:08:57;;;;;;;3.47;3.10;;;7.00;99.90;;;;;;5012205;28;20548;-84
2020/12/12 10:11:24;;;;;;;2.90;2.60;;;7.10;99.90;;;;;;5012426;28;20486;-85
2020/12/12 10:13:51;;;;;;;4.90;3.07;;;7.10;99.90;;;;;;5012549;28;20520;-84
2020/12/12 10:16:20;;;;;;;3.90;3.38;;;7.10;99.90;;;;;;5012331;28;20509;-85
2020/12/12 10:18:46;;;;;;;3.83;2.70;;;7.10;99.90;;;;;;5011300;28;20210;-85
2020/12/12 10:21:13;;;;;;;3.37;3.13;;;7.10;99.90;;;;;;5012570;28;20553;-85
2020/12/12 10:23:39;;;;;;;2.67;2.43;;;7.10;99.90;;;;;;5012579;28;20482;-85
2020/12/12 10:26:05;;;;;;;4.87;2.73;;;7.10;99.90;;;;;;5012157;28;20473;-84
2020/12/12 10:28:31;;;;;;;2.93;2.23;;;7.20;99.90;;;;;;5012353;28;20934;-85
2020/12/12 10:30:59;;;;;;;3.07;2.80;;;7.20;99.90;;;;;;5015961;28;20453;-85
2020/12/12 10:33:25;;;;;;;4.10;2.63;;;7.10;99.90;;;;;;5014691;28;20871;-85
2020/12/12 10:35:51;;;;;;;3.00;2.70;;;7.10;99.90;;;;;;5015320;28;20326;-86
2020/12/12 10:38:18;;;;;;;2.90;2.27;;;7.10;99.90;;;;;;5015864;28;20458;-86
2020/12/12 10:40:48;;;;;;;3.20;2.63;;;7.20;99.90;;;;;;5015120;28;20841;-87
2020/12/12 10:43:14;;;;;;;2.63;2.43;;;7.30;99.90;;;;;;5015817;28;20528;-87
2020/12/12 10:45:42;;;;;;;3.10;2.70;;;7.40;99.90;;;;;;5015709;28;20442;-87
2020/12/12 10:48:09;;;;;;;2.53;2.33;;;7.50;99.90;;;;;;5015642;28;20447;-86
2020/12/12 10:50:35;;;;;;;3.87;2.30;;;7.40;99.90;;;;;;5015596;28;20486;-85
2020/12/12 10:53:02;;;;;;;2.30;2.10;;;7.50;99.90;;;;;;5016146;28;20498;-87
2020/12/12 10:55:28;;;;;;;3.47;3.10;;;7.60;99.90;;;;;;5015124;28;20496;-85
2020/12/12 10:57:55;;;;;;;5.60;3.80;;;7.50;99.90;;;;;;5015194;28;20984;-86
2020/12/12 11:00:25;;;;;;;5.63;3.20;;;7.40;99.90;;;;;;5015246;28;20446;-83
2020/12/12 11:02:52;;;;;;;5.57;4.50;;;7.40;99.90;;;;;;5014011;28;20533;-84
2020/12/12 11:05:19;;;;;;;4.60;3.23;;;7.50;99.90;;;;;;5015132;28;20450;-84
2020/12/12 11:07:46;;;;;;;5.77;3.57;;;7.60;99.90;;;;;;5014880;28;20533;-85
2020/12/12 11:10:12;;;;;;;4.20;3.57;;;7.70;99.90;;;;;;5014823;28;20465;-83
2020/12/12 11:12:38;;;;;;;4.23;3.17;;;7.80;99.90;;;;;;5014954;28;20556;-84
2020/12/12 11:15:07;;;;;;;5.40;3.60;;;7.80;99.90;;;;;;5015115;28;20562;-84
2020/12/12 11:17:33;;;;;;;4.40;3.40;;;8.00;99.90;;;;;;5013388;28;20513;-84
2020/12/12 11:20:00;;;;;;;5.90;4.37;;;7.90;99.90;;;;;;5015002;28;20443;-84
2020/12/12 11:22:27;;;;;;;7.03;4.63;;;7.90;99.90;;;;;;5015137;28;20541;-85
2020/12/12 11:24:53;;;;;;;4.70;4.20;;;8.00;99.90;;;;;;5014641;28;20880;-85
2020/12/12 11:27:20;;;;;;;4.83;4.20;;;8.10;99.90;;;;;;5011831;28;21030;-85
2020/12/12 11:29:46;;;;;;;4.33;3.70;;;8.00;99.90;;;;;;5015271;28;20541;-85
2020/12/12 11:32:13;;;;;;;4.20;2.93;;;8.10;99.90;;;;;;5013665;28;20581;-83
2020/12/12 11:34:42;;;;;;;4.73;2.80;;;8.10;99.90;;;;;;5025236;28;20446;-84
2020/12/12 11:37:25;;;;;;;4.60;2.50;;;8.10;99.90;;;;;;5026319;28;20443;-85
2020/12/12 11:40:00;;;;;;;2.43;2.20;;;8.10;99.90;;;;;;5020633;28;20459;-84
2020/12/12 11:47:57;;;;;;;2.53;2.33;;;8.00;99.90;;;;;;5013250;28;20452;-84
2020/12/12 11:50:24;;;;;;;4.00;3.27;;;8.10;99.90;;;;;;5014324;28;20453;-84
2020/12/12 11:52:54;;;;;;;2.87;2.70;;;8.00;99.90;;;;;;5014139;28;20487;-83
2020/12/12 11:55:21;;;;;;;3.40;3.10;;;7.90;99.90;;;;;;5014125;28;20458;-84
2020/12/12 11:57:48;;;;;;;2.83;2.63;;;7.90;99.90;;;;;;5013932;28;20451;-84
2020/12/12 12:00:14;;;;;;;5.33;3.53;;;7.90;99.90;;;;;;5014122;28;20446;-84
2020/12/12 12:02:41;;;;;;;4.70;4.30;;;7.90;99.90;;;;;;5012784;28;20509;-83
2020/12/12 12:05:08;;;;;;;6.90;6.20;;;7.90;99.90;;;;;;5014162;28;20561;-85
2020/12/12 12:07:41;;;;;;;6.30;5.20;;;8.00;99.90;;;;;;5013780;28;20529;-84
2020/12/12 12:10:12;;;;;;;5.37;4.80;;;8.10;99.90;;;;;;5012494;28;20837;-84
2020/12/12 12:12:39;;;;;;;7.33;4.53;;;8.10;99.90;;;;;;5013768;28;20498;-84
2020/12/12 12:15:05;;;;;;;4.40;3.37;;;8.20;99.90;;;;;;5013668;28;20450;-84
2020/12/12 12:17:32;;;;;;;8.87;5.50;;;8.20;99.90;;;;;;5012644;28;20457;-85
2020/12/12 12:19:58;;;;;;;3.03;2.73;;;8.20;99.90;;;;;;5013661;28;20443;-84
2020/12/12 12:22:25;;;;;;;3.37;2.87;;;8.20;99.90;;;;;;5013617;28;20450;-84
2020/12/12 12:24:51;;;;;;;3.57;3.03;;;8.20;99.90;;;;;;5013351;28;20538;-84
2020/12/12 12:27:17;;;;;;;4.10;3.03;;;8.20;99.90;;;;;;5013636;28;20822;-84
2020/12/12 12:29:44;;;;;;;3.33;3.03;;;8.20;99.90;;;;;;5013667;28;21033;-83
2020/12/12 12:32:11;;;;;;;4.80;4.03;;;8.10;99.90;;;;;;5012210;28;20447;-84
2020/12/12 12:34:37;;;;;;;5.83;4.10;;;8.00;99.90;;;;;;5013426;28;20443;-84
2020/12/12 12:37:04;;;;;;;3.40;2.70;;;8.20;99.90;;;;;;5015565;28;20601;-85
2020/12/12 12:39:30;;;;;;;5.93;4.13;;;8.10;99.90;;;;;;5013299;28;20474;-84
2020/12/12 12:41:56;;;;;;;5.33;4.00;;;8.00;99.90;;;;;;5013480;28;20461;-84
2020/12/12 12:44:23;;;;;;;7.43;4.67;;;8.00;99.90;;;;;;4979140;28;20494;-84
2020/12/12 12:46:50;;;;;;;5.27;3.90;;;8.00;99.90;;;;;;5013395;28;20482;-84
2020/12/12 12:49:17;;;;;;;5.93;4.30;;;8.00;99.90;;;;;;5012043;28;20862;-84
2020/12/12 12:51:43;;;;;;;7.83;4.00;;;8.00;99.90;;;;;;5013014;28;20984;-85
2020/12/12 12:54:10;;;;;;;6.20;4.47;;;8.00;99.90;;;;;;5012885;28;20609;-84
2020/12/12 12:56:38;;;;;;;5.17;4.37;;;8.00;99.90;;;;;;5012861;28;20526;-85
2020/12/12 12:59:04;;;;;;;3.70;3.03;;;8.10;99.90;;;;;;5013135;28;20471;-85